sensor_id;sensor_type;location;lat;lon;timestamp;temperature;humidity
78571;SHT31;67861;51.966;5.672;2023-08-08T00:01:19;18.6;63.8
78571;SHT31;67861;51.966;5.672;2023-08-08T00:03:48;18.6;63.7
78571;SHT31;67861;51.966;5.672;2023-08-08T00:06:17;18.6;63.9
78571;SHT31;67861;51.966;5.672;2023-08-08T00:08:45;18.6;64.2
78571;SHT31;67861;51.966;5.672;2023-08-08T00:11:14;18.6;64.1
78571;SHT31;67861;51.966;5.672;2023-08-08T00:13:43;18.6;64.3
78571;SHT31;67861;51.966;5.672;2023-08-08T00:16:11;18.6;64.2
78571;SHT31;67861;51.966;5.672;2023-08-08T00:18:40;18.6;64.4
78571;SHT31;67861;51.966;5.672;2023-08-08T00:21:08;18.6;64.5
78571;SHT31;67861;51.966;5.672;2023-08-08T00:23:37;18.6;64.4
78571;SHT31;67861;51.966;5.672;2023-08-08T00:26:06;18.6;64.5
78571;SHT31;67861;51.966;5.672;2023-08-08T00:28:34;18.5;64.4
78571;SHT31;67861;51.966;5.672;2023-08-08T00:31:03;18.5;64.6
78571;SHT31;67861;51.966;5.672;2023-08-08T00:33:31;18.5;64.6
78571;SHT31;67861;51.966;5.672;2023-08-08T00:36:00;18.5;64.7
78571;SHT31;67861;51.966;5.672;2023-08-08T00:38:28;18.5;64.8
78571;SHT31;67861;51.966;5.672;2023-08-08T00:40:57;18.5;64.9
78571;SHT31;67861;51.966;5.672;2023-08-08T00:43:25;18.5;65.1
78571;SHT31;67861;51.966;5.672;2023-08-08T00:45:54;18.5;65.0
78571;SHT31;67861;51.966;5.672;2023-08-08T00:48:23;18.5;65.0
78571;SHT31;67861;51.966;5.672;2023-08-08T00:50:54;18.5;65.1
78571;SHT31;67861;51.966;5.672;2023-08-08T00:53:23;18.5;65.2
78571;SHT31;67861;51.966;5.672;2023-08-08T00:55:53;18.6;65.0
78571;SHT31;67861;51.966;5.672;2023-08-08T00:58:22;18.6;65.2
78571;SHT31;67861;51.966;5.672;2023-08-08T01:00:51;18.6;65.4
78571;SHT31;67861;51.966;5.672;2023-08-08T01:03:21;18.6;65.5
78571;SHT31;67861;51.966;5.672;2023-08-08T01:05:58;18.6;65.6
78571;SHT31;67861;51.966;5.672;2023-08-08T01:08:35;18.6;65.9
78571;SHT31;67861;51.966;5.672;2023-08-08T01:11:07;18.6;65.8
78571;SHT31;67861;51.966;5.672;2023-08-08T01:13:37;18.6;65.7
78571;SHT31;67861;51.966;5.672;2023-08-08T01:16:07;18.6;65.6
78571;SHT31;67861;51.966;5.672;2023-08-08T01:18:37;18.6;65.8
78571;SHT31;67861;51.966;5.672;2023-08-08T01:21:09;18.7;65.8
78571;SHT31;67861;51.966;5.672;2023-08-08T01:23:45;18.7;65.5
78571;SHT31;67861;51.966;5.672;2023-08-08T01:26:17;18.7;65.5
78571;SHT31;67861;51.966;5.672;2023-08-08T01:28:45;18.7;65.9
78571;SHT31;67861;51.966;5.672;2023-08-08T01:31:14;18.7;65.4
78571;SHT31;67861;51.966;5.672;2023-08-08T01:33:42;18.7;65.3
78571;SHT31;67861;51.966;5.672;2023-08-08T01:36:17;18.7;65.4
78571;SHT31;67861;51.966;5.672;2023-08-08T01:38:51;18.7;65.6
78571;SHT31;67861;51.966;5.672;2023-08-08T01:41:24;18.7;65.4
78571;SHT31;67861;51.966;5.672;2023-08-08T01:43:53;18.7;65.7
78571;SHT31;67861;51.966;5.672;2023-08-08T01:46:22;18.7;65.5
78571;SHT31;67861;51.966;5.672;2023-08-08T01:48:52;18.7;65.9
78571;SHT31;67861;51.966;5.672;2023-08-08T01:51:20;18.7;65.7
78571;SHT31;67861;51.966;5.672;2023-08-08T01:53:50;18.7;66.0
78571;SHT31;67861;51.966;5.672;2023-08-08T01:56:19;18.7;65.7
78571;SHT31;67861;51.966;5.672;2023-08-08T01:58:47;18.7;65.6
78571;SHT31;67861;51.966;5.672;2023-08-08T02:01:16;18.7;65.5
78571;SHT31;67861;51.966;5.672;2023-08-08T02:03:45;18.7;65.6
78571;SHT31;67861;51.966;5.672;2023-08-08T02:06:13;18.6;65.6
78571;SHT31;67861;51.966;5.672;2023-08-08T02:08:42;18.6;65.7
78571;SHT31;67861;51.966;5.672;2023-08-08T02:11:11;18.6;65.4
78571;SHT31;67861;51.966;5.672;2023-08-08T02:13:39;18.6;65.4
78571;SHT31;67861;51.966;5.672;2023-08-08T02:16:08;18.6;65.4
78571;SHT31;67861;51.966;5.672;2023-08-08T02:18:36;18.6;65.4
78571;SHT31;67861;51.966;5.672;2023-08-08T02:21:07;18.6;65.3
78571;SHT31;67861;51.966;5.672;2023-08-08T02:23:35;18.6;65.1
78571;SHT31;67861;51.966;5.672;2023-08-08T02:26:04;18.6;65.2
78571;SHT31;67861;51.966;5.672;2023-08-08T02:28:33;18.6;65.0
78571;SHT31;67861;51.966;5.672;2023-08-08T02:31:01;18.6;65.0
78571;SHT31;67861;51.966;5.672;2023-08-08T02:33:30;18.6;65.2
78571;SHT31;67861;51.966;5.672;2023-08-08T02:35:58;18.6;65.2
78571;SHT31;67861;51.966;5.672;2023-08-08T02:38:27;18.6;64.8
78571;SHT31;67861;51.966;5.672;2023-08-08T02:40:55;18.6;65.1
78571;SHT31;67861;51.966;5.672;2023-08-08T02:43:24;18.6;64.8
78571;SHT31;67861;51.966;5.672;2023-08-08T02:45:52;18.5;65.1
78571;SHT31;67861;51.966;5.672;2023-08-08T02:48:21;18.5;65.2
78571;SHT31;67861;51.966;5.672;2023-08-08T02:50:49;18.5;65.2
78571;SHT31;67861;51.966;5.672;2023-08-08T02:53:18;18.5;65.3
78571;SHT31;67861;51.966;5.672;2023-08-08T02:55:47;18.5;65.3
78571;SHT31;67861;51.966;5.672;2023-08-08T02:58:16;18.5;65.7
78571;SHT31;67861;51.966;5.672;2023-08-08T03:00:44;18.5;65.5
78571;SHT31;67861;51.966;5.672;2023-08-08T03:03:13;18.5;65.9
78571;SHT31;67861;51.966;5.672;2023-08-08T03:05:41;18.5;66.4
78571;SHT31;67861;51.966;5.672;2023-08-08T03:08:10;18.5;66.7
78571;SHT31;67861;51.966;5.672;2023-08-08T03:10:38;18.5;66.6
78571;SHT31;67861;51.966;5.672;2023-08-08T03:13:09;18.4;67.1
78571;SHT31;67861;51.966;5.672;2023-08-08T03:15:38;18.4;67.1
78571;SHT31;67861;51.966;5.672;2023-08-08T03:18:07;18.4;67.2
78571;SHT31;67861;51.966;5.672;2023-08-08T03:20:35;18.4;67.3
78571;SHT31;67861;51.966;5.672;2023-08-08T03:23:04;18.4;67.3
78571;SHT31;67861;51.966;5.672;2023-08-08T03:25:34;18.4;67.5
78571;SHT31;67861;51.966;5.672;2023-08-08T03:28:03;18.4;67.4
78571;SHT31;67861;51.966;5.672;2023-08-08T03:30:31;18.4;67.2
78571;SHT31;67861;51.966;5.672;2023-08-08T03:33:00;18.4;67.3
78571;SHT31;67861;51.966;5.672;2023-08-08T03:35:28;18.4;67.3
78571;SHT31;67861;51.966;5.672;2023-08-08T03:37:57;18.4;67.3
78571;SHT31;67861;51.966;5.672;2023-08-08T03:40:26;18.4;67.0
78571;SHT31;67861;51.966;5.672;2023-08-08T03:42:54;18.4;66.9
78571;SHT31;67861;51.966;5.672;2023-08-08T03:45:23;18.4;67.0
78571;SHT31;67861;51.966;5.672;2023-08-08T03:47:51;18.4;66.8
78571;SHT31;67861;51.966;5.672;2023-08-08T03:50:20;18.4;66.9
78571;SHT31;67861;51.966;5.672;2023-08-08T03:52:48;18.4;67.0
78571;SHT31;67861;51.966;5.672;2023-08-08T03:55:17;18.4;67.0
78571;SHT31;67861;51.966;5.672;2023-08-08T03:57:46;18.4;66.8
78571;SHT31;67861;51.966;5.672;2023-08-08T04:00:15;18.4;66.7
78571;SHT31;67861;51.966;5.672;2023-08-08T04:02:43;18.4;67.2
78571;SHT31;67861;51.966;5.672;2023-08-08T04:05:12;18.4;67.3
78571;SHT31;67861;51.966;5.672;2023-08-08T04:07:40;18.4;67.2
78571;SHT31;67861;51.966;5.672;2023-08-08T04:10:10;18.4;67.0
78571;SHT31;67861;51.966;5.672;2023-08-08T04:12:39;18.3;67.2
78571;SHT31;67861;51.966;5.672;2023-08-08T04:15:08;18.3;67.3
78571;SHT31;67861;51.966;5.672;2023-08-08T04:17:37;18.3;67.3
78571;SHT31;67861;51.966;5.672;2023-08-08T04:20:06;18.3;67.5
78571;SHT31;67861;51.966;5.672;2023-08-08T04:22:36;18.3;67.7
78571;SHT31;67861;51.966;5.672;2023-08-08T04:25:06;18.3;67.6
78571;SHT31;67861;51.966;5.672;2023-08-08T04:27:34;18.3;67.6
78571;SHT31;67861;51.966;5.672;2023-08-08T04:30:03;18.3;67.8
78571;SHT31;67861;51.966;5.672;2023-08-08T04:32:32;18.3;67.8
78571;SHT31;67861;51.966;5.672;2023-08-08T04:35:01;18.3;67.7
78571;SHT31;67861;51.966;5.672;2023-08-08T04:37:29;18.3;67.9
78571;SHT31;67861;51.966;5.672;2023-08-08T04:39:58;18.3;67.9
78571;SHT31;67861;51.966;5.672;2023-08-08T04:42:26;18.3;68.2
78571;SHT31;67861;51.966;5.672;2023-08-08T04:44:55;18.3;68.1
78571;SHT31;67861;51.966;5.672;2023-08-08T04:47:25;18.3;68.1
78571;SHT31;67861;51.966;5.672;2023-08-08T04:49:54;18.3;68.2
78571;SHT31;67861;51.966;5.672;2023-08-08T04:52:22;18.3;68.0
78571;SHT31;67861;51.966;5.672;2023-08-08T04:54:51;18.3;68.2
78571;SHT31;67861;51.966;5.672;2023-08-08T04:57:20;18.3;68.0
78571;SHT31;67861;51.966;5.672;2023-08-08T04:59:49;18.3;67.9
78571;SHT31;67861;51.966;5.672;2023-08-08T05:02:17;18.3;67.7
78571;SHT31;67861;51.966;5.672;2023-08-08T05:04:46;18.3;67.9
78571;SHT31;67861;51.966;5.672;2023-08-08T05:07:16;18.3;67.9
78571;SHT31;67861;51.966;5.672;2023-08-08T05:09:44;18.3;68.0
78571;SHT31;67861;51.966;5.672;2023-08-08T05:12:13;18.3;68.2
78571;SHT31;67861;51.966;5.672;2023-08-08T05:14:41;18.3;68.2
78571;SHT31;67861;51.966;5.672;2023-08-08T05:17:10;18.3;68.5
78571;SHT31;67861;51.966;5.672;2023-08-08T05:19:38;18.3;68.7
78571;SHT31;67861;51.966;5.672;2023-08-08T05:22:07;18.3;68.7
78571;SHT31;67861;51.966;5.672;2023-08-08T05:24:36;18.3;68.7
78571;SHT31;67861;51.966;5.672;2023-08-08T05:27:05;18.3;68.5
78571;SHT31;67861;51.966;5.672;2023-08-08T05:29:33;18.3;68.4
78571;SHT31;67861;51.966;5.672;2023-08-08T05:32:05;18.3;68.5
78571;SHT31;67861;51.966;5.672;2023-08-08T05:34:34;18.3;68.6
78571;SHT31;67861;51.966;5.672;2023-08-08T05:37:03;18.3;68.5
78571;SHT31;67861;51.966;5.672;2023-08-08T05:39:32;18.4;68.2
78571;SHT31;67861;51.966;5.672;2023-08-08T05:42:00;18.4;68.0
78571;SHT31;67861;51.966;5.672;2023-08-08T05:44:29;18.4;68.3
78571;SHT31;67861;51.966;5.672;2023-08-08T05:46:58;18.4;68.3
78571;SHT31;67861;51.966;5.672;2023-08-08T05:49:26;18.4;68.3
78571;SHT31;67861;51.966;5.672;2023-08-08T05:51:55;18.4;68.4
78571;SHT31;67861;51.966;5.672;2023-08-08T05:54:23;18.4;68.4
78571;SHT31;67861;51.966;5.672;2023-08-08T05:56:52;18.5;68.1
78571;SHT31;67861;51.966;5.672;2023-08-08T05:59:21;18.5;67.7
78571;SHT31;67861;51.966;5.672;2023-08-08T06:01:50;18.5;68.1
78571;SHT31;67861;51.966;5.672;2023-08-08T06:04:18;18.5;67.6
78571;SHT31;67861;51.966;5.672;2023-08-08T06:06:47;18.5;67.7
78571;SHT31;67861;51.966;5.672;2023-08-08T06:09:17;18.6;67.6
78571;SHT31;67861;51.966;5.672;2023-08-08T06:11:45;18.6;68.0
78571;SHT31;67861;51.966;5.672;2023-08-08T06:14:14;18.6;67.8
78571;SHT31;67861;51.966;5.672;2023-08-08T06:16:43;18.6;67.0
78571;SHT31;67861;51.966;5.672;2023-08-08T06:19:14;18.6;67.5
78571;SHT31;67861;51.966;5.672;2023-08-08T06:21:43;18.7;67.4
78571;SHT31;67861;51.966;5.672;2023-08-08T06:24:11;18.7;66.7
78571;SHT31;67861;51.966;5.672;2023-08-08T06:26:40;18.7;66.9
78571;SHT31;67861;51.966;5.672;2023-08-08T06:29:09;18.7;67.1
78571;SHT31;67861;51.966;5.672;2023-08-08T06:31:38;18.8;66.4
78571;SHT31;67861;51.966;5.672;2023-08-08T06:34:07;18.8;66.6
78571;SHT31;67861;51.966;5.672;2023-08-08T06:36:35;18.8;65.8
78571;SHT31;67861;51.966;5.672;2023-08-08T06:39:06;18.8;65.1
78571;SHT31;67861;51.966;5.672;2023-08-08T06:41:35;18.9;64.2
78571;SHT31;67861;51.966;5.672;2023-08-08T06:44:06;18.9;64.5
78571;SHT31;67861;51.966;5.672;2023-08-08T06:46:35;18.9;63.7
78571;SHT31;67861;51.966;5.672;2023-08-08T06:49:04;18.9;63.0
78571;SHT31;67861;51.966;5.672;2023-08-08T06:51:33;18.9;62.9
78571;SHT31;67861;51.966;5.672;2023-08-08T06:54:02;18.9;63.5
78571;SHT31;67861;51.966;5.672;2023-08-08T06:56:31;19.0;63.1
78571;SHT31;67861;51.966;5.672;2023-08-08T06:59:00;19.0;62.5
78571;SHT31;67861;51.966;5.672;2023-08-08T07:01:28;19.0;62.2
78571;SHT31;67861;51.966;5.672;2023-08-08T07:03:57;19.0;62.6
78571;SHT31;67861;51.966;5.672;2023-08-08T07:06:26;19.1;62.5
78571;SHT31;67861;51.966;5.672;2023-08-08T07:08:54;19.1;61.5
78571;SHT31;67861;51.966;5.672;2023-08-08T07:11:23;19.1;61.4
78571;SHT31;67861;51.966;5.672;2023-08-08T07:13:53;19.1;61.6
78571;SHT31;67861;51.966;5.672;2023-08-08T07:16:22;19.1;61.9
78571;SHT31;67861;51.966;5.672;2023-08-08T07:18:50;19.1;62.9
78571;SHT31;67861;51.966;5.672;2023-08-08T07:21:19;19.1;60.8
78571;SHT31;67861;51.966;5.672;2023-08-08T07:23:48;19.1;60.8
78571;SHT31;67861;51.966;5.672;2023-08-08T07:26:16;19.1;61.1
78571;SHT31;67861;51.966;5.672;2023-08-08T07:28:45;19.2;61.0
78571;SHT31;67861;51.966;5.672;2023-08-08T07:31:14;19.2;59.9
78571;SHT31;67861;51.966;5.672;2023-08-08T07:33:42;19.2;61.0
78571;SHT31;67861;51.966;5.672;2023-08-08T07:36:11;19.2;61.5
78571;SHT31;67861;51.966;5.672;2023-08-08T07:38:39;19.3;61.2
78571;SHT31;67861;51.966;5.672;2023-08-08T07:41:10;19.3;61.1
78571;SHT31;67861;51.966;5.672;2023-08-08T07:43:38;19.4;61.2
78571;SHT31;67861;51.966;5.672;2023-08-08T07:46:07;19.4;59.5
78571;SHT31;67861;51.966;5.672;2023-08-08T07:48:35;19.4;58.9
78571;SHT31;67861;51.966;5.672;2023-08-08T07:51:04;19.5;58.0
78571;SHT31;67861;51.966;5.672;2023-08-08T07:53:33;19.5;57.9
78571;SHT31;67861;51.966;5.672;2023-08-08T07:56:01;19.5;57.8
78571;SHT31;67861;51.966;5.672;2023-08-08T07:58:31;19.6;57.4
78571;SHT31;67861;51.966;5.672;2023-08-08T08:01:00;19.6;56.5
78571;SHT31;67861;51.966;5.672;2023-08-08T08:03:31;19.6;56.7
78571;SHT31;67861;51.966;5.672;2023-08-08T08:05:59;19.7;56.6
78571;SHT31;67861;51.966;5.672;2023-08-08T08:08:28;19.7;57.8
78571;SHT31;67861;51.966;5.672;2023-08-08T08:10:57;19.7;56.6
78571;SHT31;67861;51.966;5.672;2023-08-08T08:13:25;19.8;57.3
78571;SHT31;67861;51.966;5.672;2023-08-08T08:15:54;19.8;56.6
78571;SHT31;67861;51.966;5.672;2023-08-08T08:18:22;19.8;57.2
78571;SHT31;67861;51.966;5.672;2023-08-08T08:20:51;19.9;56.8
78571;SHT31;67861;51.966;5.672;2023-08-08T08:23:19;19.9;55.4
78571;SHT31;67861;51.966;5.672;2023-08-08T08:25:48;19.9;56.0
78571;SHT31;67861;51.966;5.672;2023-08-08T08:28:17;20.0;56.0
78571;SHT31;67861;51.966;5.672;2023-08-08T08:30:45;20.0;55.7
78571;SHT31;67861;51.966;5.672;2023-08-08T08:33:14;20.1;53.9
78571;SHT31;67861;51.966;5.672;2023-08-08T08:35:43;20.1;54.9
78571;SHT31;67861;51.966;5.672;2023-08-08T08:38:11;20.1;55.4
78571;SHT31;67861;51.966;5.672;2023-08-08T08:40:41;20.2;55.2
78571;SHT31;67861;51.966;5.672;2023-08-08T08:43:15;20.3;55.3
78571;SHT31;67861;51.966;5.672;2023-08-08T08:45:50;20.3;54.5
78571;SHT31;67861;51.966;5.672;2023-08-08T08:48:21;20.4;54.5
78571;SHT31;67861;51.966;5.672;2023-08-08T08:50:51;20.4;54.6
78571;SHT31;67861;51.966;5.672;2023-08-08T08:53:20;20.5;54.1
78571;SHT31;67861;51.966;5.672;2023-08-08T08:55:50;20.5;55.7
78571;SHT31;67861;51.966;5.672;2023-08-08T08:58:21;20.6;53.8
78571;SHT31;67861;51.966;5.672;2023-08-08T09:00:51;20.7;54.0
78571;SHT31;67861;51.966;5.672;2023-08-08T09:03:20;20.7;53.8
78571;SHT31;67861;51.966;5.672;2023-08-08T09:05:48;20.8;53.9
78571;SHT31;67861;51.966;5.672;2023-08-08T09:08:17;20.9;52.9
78571;SHT31;67861;51.966;5.672;2023-08-08T09:10:48;20.9;53.4
78571;SHT31;67861;51.966;5.672;2023-08-08T09:13:17;21.0;52.8
78571;SHT31;67861;51.966;5.672;2023-08-08T09:15:47;21.1;51.3
78571;SHT31;67861;51.966;5.672;2023-08-08T09:18:19;21.1;51.3
78571;SHT31;67861;51.966;5.672;2023-08-08T09:20:48;21.2;50.7
78571;SHT31;67861;51.966;5.672;2023-08-08T09:23:17;21.3;50.2
78571;SHT31;67861;51.966;5.672;2023-08-08T09:25:46;21.3;51.3
78571;SHT31;67861;51.966;5.672;2023-08-08T09:28:15;21.4;50.7
78571;SHT31;67861;51.966;5.672;2023-08-08T09:30:44;21.4;51.2
78571;SHT31;67861;51.966;5.672;2023-08-08T09:33:12;21.5;50.0
78571;SHT31;67861;51.966;5.672;2023-08-08T09:35:41;21.5;50.3
78571;SHT31;67861;51.966;5.672;2023-08-08T09:38:11;21.5;49.2
78571;SHT31;67861;51.966;5.672;2023-08-08T09:40:40;21.6;50.0
78571;SHT31;67861;51.966;5.672;2023-08-08T09:43:09;21.6;49.8
78571;SHT31;67861;51.966;5.672;2023-08-08T09:45:40;21.6;50.6
78571;SHT31;67861;51.966;5.672;2023-08-08T09:48:11;21.7;49.7
78571;SHT31;67861;51.966;5.672;2023-08-08T09:50:40;21.8;48.5
78571;SHT31;67861;51.966;5.672;2023-08-08T09:53:10;21.8;49.2
78571;SHT31;67861;51.966;5.672;2023-08-08T09:55:40;21.9;49.6
78571;SHT31;67861;51.966;5.672;2023-08-08T09:58:09;22.0;50.5
78571;SHT31;67861;51.966;5.672;2023-08-08T10:00:38;22.0;49.0
78571;SHT31;67861;51.966;5.672;2023-08-08T10:03:07;22.1;47.8
78571;SHT31;67861;51.966;5.672;2023-08-08T10:05:36;22.1;47.5
78571;SHT31;67861;51.966;5.672;2023-08-08T10:08:05;22.2;48.5
78571;SHT31;67861;51.966;5.672;2023-08-08T10:10:35;22.2;47.1
78571;SHT31;67861;51.966;5.672;2023-08-08T10:13:05;22.3;48.4
78571;SHT31;67861;51.966;5.672;2023-08-08T10:15:36;22.3;48.2
78571;SHT31;67861;51.966;5.672;2023-08-08T10:18:06;22.4;48.6
78571;SHT31;67861;51.966;5.672;2023-08-08T10:20:36;22.4;49.2
78571;SHT31;67861;51.966;5.672;2023-08-08T10:23:05;22.5;49.8
78571;SHT31;67861;51.966;5.672;2023-08-08T10:25:34;22.5;46.6
78571;SHT31;67861;51.966;5.672;2023-08-08T10:28:05;22.6;47.8
78571;SHT31;67861;51.966;5.672;2023-08-08T10:30:45;22.6;47.8
78571;SHT31;67861;51.966;5.672;2023-08-08T10:33:18;22.6;46.0
78571;SHT31;67861;51.966;5.672;2023-08-08T10:35:58;22.6;46.8
78571;SHT31;67861;51.966;5.672;2023-08-08T10:38:41;22.6;46.6
78571;SHT31;67861;51.966;5.672;2023-08-08T10:41:11;22.6;45.5
78571;SHT31;67861;51.966;5.672;2023-08-08T10:43:50;22.6;44.9
78571;SHT31;67861;51.966;5.672;2023-08-08T10:46:27;22.6;45.9
78571;SHT31;67861;51.966;5.672;2023-08-08T10:48:57;22.6;45.8
78571;SHT31;67861;51.966;5.672;2023-08-08T10:51:35;22.7;47.4
78571;SHT31;67861;51.966;5.672;2023-08-08T10:54:06;22.7;46.7
78571;SHT31;67861;51.966;5.672;2023-08-08T10:56:36;22.7;46.7
78571;SHT31;67861;51.966;5.672;2023-08-08T10:59:15;22.6;46.2
78571;SHT31;67861;51.966;5.672;2023-08-08T11:01:53;22.6;46.5
78571;SHT31;67861;51.966;5.672;2023-08-08T11:04:25;22.6;47.3
78571;SHT31;67861;51.966;5.672;2023-08-08T11:06:59;22.6;47.3
78571;SHT31;67861;51.966;5.672;2023-08-08T11:09:29;22.7;46.4
78571;SHT31;67861;51.966;5.672;2023-08-08T11:11:58;22.7;46.1
78571;SHT31;67861;51.966;5.672;2023-08-08T11:14:27;22.7;46.8
78571;SHT31;67861;51.966;5.672;2023-08-08T11:16:57;22.7;47.0
78571;SHT31;67861;51.966;5.672;2023-08-08T11:19:28;22.8;47.2
78571;SHT31;67861;51.966;5.672;2023-08-08T11:21:57;22.8;45.3
78571;SHT31;67861;51.966;5.672;2023-08-08T11:24:34;22.9;47.4
78571;SHT31;67861;51.966;5.672;2023-08-08T11:27:01;22.9;47.9
78571;SHT31;67861;51.966;5.672;2023-08-08T11:29:30;22.9;47.4
78571;SHT31;67861;51.966;5.672;2023-08-08T11:31:59;22.9;47.4
78571;SHT31;67861;51.966;5.672;2023-08-08T11:34:29;22.9;47.4
78571;SHT31;67861;51.966;5.672;2023-08-08T11:36:59;22.9;47.3
78571;SHT31;67861;51.966;5.672;2023-08-08T11:39:29;23.0;47.0
78571;SHT31;67861;51.966;5.672;2023-08-08T11:41:57;23.0;47.4
78571;SHT31;67861;51.966;5.672;2023-08-08T11:44:27;23.0;46.1
78571;SHT31;67861;51.966;5.672;2023-08-08T11:46:59;23.0;46.6
78571;SHT31;67861;51.966;5.672;2023-08-08T11:49:28;23.1;47.4
78571;SHT31;67861;51.966;5.672;2023-08-08T11:51:57;23.1;45.9
78571;SHT31;67861;51.966;5.672;2023-08-08T11:54:27;23.1;45.8
78571;SHT31;67861;51.966;5.672;2023-08-08T11:56:58;23.2;46.2
78571;SHT31;67861;51.966;5.672;2023-08-08T11:59:28;23.2;46.3
78571;SHT31;67861;51.966;5.672;2023-08-08T12:01:59;23.2;47.2
78571;SHT31;67861;51.966;5.672;2023-08-08T12:04:28;23.2;45.6
78571;SHT31;67861;51.966;5.672;2023-08-08T12:07:03;23.3;45.4
78571;SHT31;67861;51.966;5.672;2023-08-08T12:09:33;23.3;46.1
78571;SHT31;67861;51.966;5.672;2023-08-08T12:12:02;23.3;45.3
78571;SHT31;67861;51.966;5.672;2023-08-08T12:14:38;23.3;46.6
78571;SHT31;67861;51.966;5.672;2023-08-08T12:17:09;23.3;46.7
78571;SHT31;67861;51.966;5.672;2023-08-08T12:19:46;23.4;47.2
78571;SHT31;67861;51.966;5.672;2023-08-08T12:22:15;23.4;46.2
78571;SHT31;67861;51.966;5.672;2023-08-08T12:24:44;23.4;44.8
78571;SHT31;67861;51.966;5.672;2023-08-08T12:27:14;23.4;45.8
78571;SHT31;67861;51.966;5.672;2023-08-08T12:29:43;23.5;47.2
78571;SHT31;67861;51.966;5.672;2023-08-08T12:32:12;23.5;45.7
78571;SHT31;67861;51.966;5.672;2023-08-08T12:34:41;23.5;44.7
78571;SHT31;67861;51.966;5.672;2023-08-08T12:37:09;23.5;44.7
78571;SHT31;67861;51.966;5.672;2023-08-08T12:39:38;23.5;45.7
78571;SHT31;67861;51.966;5.672;2023-08-08T12:42:07;23.6;47.1
78571;SHT31;67861;51.966;5.672;2023-08-08T12:44:35;23.6;46.4
78571;SHT31;67861;51.966;5.672;2023-08-08T12:47:04;23.6;45.6
78571;SHT31;67861;51.966;5.672;2023-08-08T12:49:32;23.7;47.2
78571;SHT31;67861;51.966;5.672;2023-08-08T12:52:01;23.7;45.4
78571;SHT31;67861;51.966;5.672;2023-08-08T12:54:29;23.8;45.3
78571;SHT31;67861;51.966;5.672;2023-08-08T12:56:58;23.8;46.5
78571;SHT31;67861;51.966;5.672;2023-08-08T12:59:27;23.8;44.5
78571;SHT31;67861;51.966;5.672;2023-08-08T13:01:55;23.9;44.8
78571;SHT31;67861;51.966;5.672;2023-08-08T13:04:24;23.9;43.9
78571;SHT31;67861;51.966;5.672;2023-08-08T13:06:53;23.9;43.6
78571;SHT31;67861;51.966;5.672;2023-08-08T13:09:22;23.9;45.6
78571;SHT31;67861;51.966;5.672;2023-08-08T13:11:51;23.8;45.5
78571;SHT31;67861;51.966;5.672;2023-08-08T13:14:19;23.8;44.8
78571;SHT31;67861;51.966;5.672;2023-08-08T13:16:48;23.8;44.3
78571;SHT31;67861;51.966;5.672;2023-08-08T13:19:17;23.8;45.0
78571;SHT31;67861;51.966;5.672;2023-08-08T13:21:51;23.8;44.7
78571;SHT31;67861;51.966;5.672;2023-08-08T13:24:20;23.8;45.6
78571;SHT31;67861;51.966;5.672;2023-08-08T13:26:49;23.8;45.2
78571;SHT31;67861;51.966;5.672;2023-08-08T13:29:20;23.8;44.6
78571;SHT31;67861;51.966;5.672;2023-08-08T13:31:49;23.8;44.5
78571;SHT31;67861;51.966;5.672;2023-08-08T13:34:17;23.7;43.9
78571;SHT31;67861;51.966;5.672;2023-08-08T13:36:46;23.7;44.7
78571;SHT31;67861;51.966;5.672;2023-08-08T13:39:14;23.7;45.4
78571;SHT31;67861;51.966;5.672;2023-08-08T13:41:43;23.6;45.4
78571;SHT31;67861;51.966;5.672;2023-08-08T13:44:11;23.6;44.7
78571;SHT31;67861;51.966;5.672;2023-08-08T13:46:40;23.6;44.9
78571;SHT31;67861;51.966;5.672;2023-08-08T13:49:11;23.5;44.9
78571;SHT31;67861;51.966;5.672;2023-08-08T13:51:39;23.5;46.0
78571;SHT31;67861;51.966;5.672;2023-08-08T13:54:09;23.5;45.8
78571;SHT31;67861;51.966;5.672;2023-08-08T13:56:38;23.5;46.4
78571;SHT31;67861;51.966;5.672;2023-08-08T13:59:06;23.4;46.0
78571;SHT31;67861;51.966;5.672;2023-08-08T14:01:35;23.4;46.1
78571;SHT31;67861;51.966;5.672;2023-08-08T14:04:04;23.4;45.7
78571;SHT31;67861;51.966;5.672;2023-08-08T14:06:32;23.3;46.2
78571;SHT31;67861;51.966;5.672;2023-08-08T14:09:01;23.3;46.5
78571;SHT31;67861;51.966;5.672;2023-08-08T14:11:31;23.3;44.9
78571;SHT31;67861;51.966;5.672;2023-08-08T14:14:00;23.2;45.0
78571;SHT31;67861;51.966;5.672;2023-08-08T14:16:28;23.2;44.8
78571;SHT31;67861;51.966;5.672;2023-08-08T14:18:57;23.2;44.8
78571;SHT31;67861;51.966;5.672;2023-08-08T14:21:26;23.2;45.1
78571;SHT31;67861;51.966;5.672;2023-08-08T14:23:54;23.1;45.2
78571;SHT31;67861;51.966;5.672;2023-08-08T14:26:23;23.1;45.2
78571;SHT31;67861;51.966;5.672;2023-08-08T14:28:52;23.1;45.1
78571;SHT31;67861;51.966;5.672;2023-08-08T14:31:20;23.1;45.2
78571;SHT31;67861;51.966;5.672;2023-08-08T14:33:49;23.1;45.4
78571;SHT31;67861;51.966;5.672;2023-08-08T14:36:18;23.0;45.0
78571;SHT31;67861;51.966;5.672;2023-08-08T14:38:48;23.0;45.8
78571;SHT31;67861;51.966;5.672;2023-08-08T14:41:19;23.0;46.1
78571;SHT31;67861;51.966;5.672;2023-08-08T14:43:47;23.0;46.1
78571;SHT31;67861;51.966;5.672;2023-08-08T14:46:16;23.0;46.7
78571;SHT31;67861;51.966;5.672;2023-08-08T14:48:44;23.1;47.3
78571;SHT31;67861;51.966;5.672;2023-08-08T14:51:15;23.1;46.5
78571;SHT31;67861;51.966;5.672;2023-08-08T14:53:45;23.1;47.6
78571;SHT31;67861;51.966;5.672;2023-08-08T14:56:14;23.1;46.5
78571;SHT31;67861;51.966;5.672;2023-08-08T14:58:43;23.1;45.7
78571;SHT31;67861;51.966;5.672;2023-08-08T15:01:11;23.1;46.7
78571;SHT31;67861;51.966;5.672;2023-08-08T15:03:40;23.1;45.6
78571;SHT31;67861;51.966;5.672;2023-08-08T15:06:11;23.1;45.0
78571;SHT31;67861;51.966;5.672;2023-08-08T15:08:39;23.1;46.1
78571;SHT31;67861;51.966;5.672;2023-08-08T15:11:08;23.1;46.4
78571;SHT31;67861;51.966;5.672;2023-08-08T15:13:38;23.1;45.0
78571;SHT31;67861;51.966;5.672;2023-08-08T15:16:06;23.1;45.4
78571;SHT31;67861;51.966;5.672;2023-08-08T15:18:35;23.0;46.0
78571;SHT31;67861;51.966;5.672;2023-08-08T15:21:03;23.0;46.2
78571;SHT31;67861;51.966;5.672;2023-08-08T15:23:32;23.0;46.4
78571;SHT31;67861;51.966;5.672;2023-08-08T15:26:01;23.0;46.4
78571;SHT31;67861;51.966;5.672;2023-08-08T15:28:29;23.0;45.7
78571;SHT31;67861;51.966;5.672;2023-08-08T15:30:58;23.0;45.8
78571;SHT31;67861;51.966;5.672;2023-08-08T15:33:27;23.0;45.8
78571;SHT31;67861;51.966;5.672;2023-08-08T15:35:55;23.0;45.4
78571;SHT31;67861;51.966;5.672;2023-08-08T15:38:26;23.0;45.8
78571;SHT31;67861;51.966;5.672;2023-08-08T15:40:55;23.0;46.4
78571;SHT31;67861;51.966;5.672;2023-08-08T15:43:24;23.0;46.2
78571;SHT31;67861;51.966;5.672;2023-08-08T15:45:53;22.9;46.0
78571;SHT31;67861;51.966;5.672;2023-08-08T15:48:22;22.9;47.0
78571;SHT31;67861;51.966;5.672;2023-08-08T15:50:50;22.9;46.6
78571;SHT31;67861;51.966;5.672;2023-08-08T15:53:19;22.9;48.0
78571;SHT31;67861;51.966;5.672;2023-08-08T15:55:49;22.9;47.2
78571;SHT31;67861;51.966;5.672;2023-08-08T15:58:20;22.9;48.2
78571;SHT31;67861;51.966;5.672;2023-08-08T16:00:49;22.9;48.5
78571;SHT31;67861;51.966;5.672;2023-08-08T16:03:18;22.9;47.9
78571;SHT31;67861;51.966;5.672;2023-08-08T16:05:47;22.9;47.7
78571;SHT31;67861;51.966;5.672;2023-08-08T16:08:15;22.9;47.1
78571;SHT31;67861;51.966;5.672;2023-08-08T16:10:44;22.9;47.8
78571;SHT31;67861;51.966;5.672;2023-08-08T16:13:14;22.9;47.3
78571;SHT31;67861;51.966;5.672;2023-08-08T16:15:42;22.9;46.8